Time;durP1;ratioP1;P1;durP2;ratioP2;P2;SDS_P1;SDS_P2;PMS_P1;PMS_P2;Temp;Humidity;BMP_temperature;BMP_pressure;BME280_temperature;BME280_humidity;BME280_pressure;Samples;Min_cycle;Max_cycle;Signal;HPM_P1;HPM_P2
2023/12/25 00:00:04;;;;;;;20.58;7.40;;;10.60;99.90;;;;;;5037995;28;20420;-57
2023/12/25 00:02:31;;;;;;;13.50;6.57;;;10.60;99.90;;;;;;5038554;28;20226;-57
2023/12/25 00:04:56;;;;;;;28.92;6.35;;;10.60;99.90;;;;;;5036616;28;20025;-57
2023/12/25 00:07:22;;;;;;;25.25;6.75;;;10.60;99.90;;;;;;5038080;28;20049;-57
2023/12/25 00:09:48;;;;;;;23.42;6.28;;;10.60;99.90;;;;;;5038074;28;20107;-56
2023/12/25 00:12:13;;;;;;;31.10;6.30;;;10.60;99.90;;;;;;5035229;28;20028;-56
2023/12/25 00:14:39;;;;;;;13.77;5.00;;;10.60;99.90;;;;;;5036445;28;20017;-57
2023/12/25 00:17:04;;;;;;;12.40;3.75;;;10.60;99.90;;;;;;5032300;28;20037;-58
2023/12/25 00:19:30;;;;;;;11.68;4.35;;;10.60;99.90;;;;;;5014818;28;20560;-57
2023/12/25 00:21:58;;;;;;;14.07;4.50;;;10.50;99.90;;;;;;5031384;28;20021;-57
2023/12/25 00:24:23;;;;;;;13.13;4.10;;;10.50;99.90;;;;;;5023438;28;20447;-56
2023/12/25 00:26:49;;;;;;;17.05;5.00;;;10.50;99.90;;;;;;5039448;28;20108;-57
2023/12/25 00:29:15;;;;;;;14.80;4.22;;;10.50;99.90;;;;;;5020396;28;20033;-56
2023/12/25 00:31:40;;;;;;;15.55;4.45;;;10.50;99.90;;;;;;5040028;28;20039;-56
2023/12/25 00:34:07;;;;;;;17.30;4.72;;;10.50;99.90;;;;;;5021765;28;20025;-56
2023/12/25 00:36:33;;;;;;;15.10;5.00;;;10.50;99.90;;;;;;5038361;28;20458;-56
2023/12/25 00:38:59;;;;;;;17.02;6.00;;;10.50;99.90;;;;;;5018977;28;20025;-56
2023/12/25 00:41:30;;;;;;;21.08;5.88;;;10.60;99.90;;;;;;5034615;28;20033;-55
2023/12/25 00:43:56;;;;;;;20.92;6.03;;;10.50;99.90;;;;;;5035025;28;20036;-54
2023/12/25 00:46:22;;;;;;;27.70;7.28;;;10.60;99.90;;;;;;5024008;28;20036;-55
2023/12/25 00:48:47;;;;;;;24.38;6.70;;;10.50;99.90;;;;;;5037638;28;20482;-55
2023/12/25 00:51:13;;;;;;;20.58;5.80;;;10.50;99.90;;;;;;5038799;28;20083;-55
2023/12/25 00:53:39;;;;;;;27.27;7.00;;;10.60;99.90;;;;;;5039793;28;20108;-55
2023/12/25 00:56:08;;;;;;;25.65;5.97;;;10.60;99.90;;;;;;5039669;28;20037;-55
2023/12/25 00:58:34;;;;;;;20.02;5.60;;;10.60;99.90;;;;;;5038829;28;20036;-55
2023/12/25 01:00:59;;;;;;;23.63;4.93;;;10.60;99.90;;;;;;5040893;28;20025;-55
2023/12/25 01:03:25;;;;;;;15.25;4.70;;;10.60;99.90;;;;;;5038252;28;20349;-54
2023/12/25 01:05:51;;;;;;;24.08;5.13;;;10.60;99.90;;;;;;5040893;28;20035;-54
2023/12/25 01:08:16;;;;;;;14.38;4.32;;;10.60;99.90;;;;;;5037554;28;20055;-54
2023/12/25 01:10:42;;;;;;;15.50;4.40;;;10.60;99.90;;;;;;5035812;28;20030;-53
2023/12/25 01:13:07;;;;;;;23.83;5.13;;;10.60;99.90;;;;;;5030740;28;20084;-54
2023/12/25 01:15:33;;;;;;;18.33;4.75;;;10.60;99.90;;;;;;5030383;28;20038;-54
2023/12/25 01:17:59;;;;;;;17.15;5.07;;;10.60;99.90;;;;;;5010992;28;20025;-54
2023/12/25 01:20:25;;;;;;;18.75;4.80;;;10.60;99.90;;;;;;5033033;28;20502;-52
2023/12/25 01:22:50;;;;;;;17.42;4.75;;;10.60;99.90;;;;;;5030250;28;20041;-53
2023/12/25 01:25:16;;;;;;;18.95;4.45;;;10.70;99.90;;;;;;5029880;28;20022;-53
2023/12/25 01:27:41;;;;;;;18.42;5.10;;;10.70;99.90;;;;;;5029951;28;20645;-53
2023/12/25 01:30:10;;;;;;;14.68;5.18;;;10.60;99.90;;;;;;5032964;28;20040;-53
2023/12/25 01:32:36;;;;;;;17.73;4.45;;;10.60;99.90;;;;;;5030241;28;20071;-52
2023/12/25 01:35:02;;;;;;;13.93;4.75;;;10.70;99.90;;;;;;5029844;28;20491;-53
2023/12/25 01:37:27;;;;;;;14.77;4.32;;;10.60;99.90;;;;;;5030004;28;20033;-51
2023/12/25 01:39:53;;;;;;;21.20;4.95;;;10.60;99.90;;;;;;5010796;28;20502;-53
2023/12/25 01:42:19;;;;;;;13.32;4.45;;;10.60;99.90;;;;;;5032687;28;20092;-52
2023/12/25 01:44:46;;;;;;;12.30;4.00;;;10.60;99.90;;;;;;5040460;28;20017;-51
2023/12/25 01:47:13;;;;;;;17.05;3.63;;;10.60;99.90;;;;;;5039117;28;20125;-53
2023/12/25 01:49:38;;;;;;;20.60;4.60;;;10.70;99.90;;;;;;5039678;28;20013;-53
2023/12/25 01:52:04;;;;;;;9.45;3.63;;;10.70;99.90;;;;;;5040782;28;20635;-53
2023/12/25 01:54:32;;;;;;;12.02;4.55;;;10.60;99.90;;;;;;5038115;28;20043;-53
2023/12/25 01:56:58;;;;;;;8.57;4.60;;;10.60;99.90;;;;;;5041412;28;20017;-53
2023/12/25 01:59:28;;;;;;;15.73;5.35;;;10.60;99.90;;;;;;5034190;28;20028;-53
2023/12/25 02:01:54;;;;;;;16.98;4.30;;;10.50;99.90;;;;;;5033676;28;20188;-53
2023/12/25 02:04:19;;;;;;;12.95;4.35;;;10.50;99.90;;;;;;5038799;28;20383;-54
2023/12/25 02:06:46;;;;;;;15.52;4.47;;;10.50;99.90;;;;;;5039958;28;20037;-53
2023/12/25 02:09:13;;;;;;;18.27;4.97;;;10.40;99.90;;;;;;5039480;28;20021;-51
2023/12/25 02:11:42;;;;;;;11.77;4.80;;;10.50;99.90;;;;;;5039605;28;20018;-50
2023/12/25 02:14:09;;;;;;;20.55;4.85;;;10.50;99.90;;;;;;5022920;28;20040;-52
2023/12/25 02:16:36;;;;;;;17.48;4.63;;;10.40;99.90;;;;;;5036987;28;20030;-53
2023/12/25 02:19:03;;;;;;;15.32;4.57;;;10.50;99.90;;;;;;5040658;28;20656;-53
2023/12/25 02:21:29;;;;;;;15.10;4.53;;;10.50;99.90;;;;;;5031608;28;20041;-53
2023/12/25 02:24:04;;;;;;;12.68;4.70;;;10.50;99.90;;;;;;5038255;28;20049;-52
2023/12/25 02:26:30;;;;;;;13.02;4.35;;;10.40;99.90;;;;;;5038143;28;20219;-51
2023/12/25 02:28:55;;;;;;;13.15;4.32;;;10.50;99.90;;;;;;5041672;28;20027;-52
2023/12/25 02:31:23;;;;;;;14.95;4.80;;;10.40;99.90;;;;;;5038582;28;20021;-53
2023/12/25 02:33:49;;;;;;;12.20;4.00;;;10.40;99.90;;;;;;5041121;28;20017;-51
2023/12/25 02:36:15;;;;;;;14.77;4.28;;;10.40;99.90;;;;;;5039356;28;20070;-52
2023/12/25 02:38:40;;;;;;;11.43;5.03;;;10.40;99.90;;;;;;5038177;28;20017;-53
2023/12/25 02:41:06;;;;;;;15.35;4.20;;;10.40;99.90;;;;;;5028940;28;20411;-53
2023/12/25 02:43:32;;;;;;;12.73;4.10;;;10.40;99.90;;;;;;5029557;28;20431;-53
2023/12/25 02:45:57;;;;;;;14.38;4.10;;;10.40;99.90;;;;;;5041612;28;20017;-52
2023/12/25 02:48:23;;;;;;;11.00;3.97;;;10.40;99.90;;;;;;5038312;28;20501;-54
2023/12/25 02:50:48;;;;;;;13.65;3.88;;;10.40;99.90;;;;;;5040861;28;20033;-54
2023/12/25 02:53:14;;;;;;;15.20;3.75;;;10.50;99.90;;;;;;5039816;28;20021;-52
2023/12/25 02:55:40;;;;;;;13.35;4.00;;;10.50;99.90;;;;;;5038011;28;20014;-54
2023/12/25 02:58:05;;;;;;;17.27;3.53;;;10.50;99.90;;;;;;5037653;28;20061;-54
2023/12/25 03:00:31;;;;;;;11.55;3.88;;;10.40;99.90;;;;;;5038648;28;20113;-51
2023/12/25 03:02:56;;;;;;;17.48;3.47;;;10.40;99.90;;;;;;5041960;28;20047;-51
2023/12/25 03:05:22;;;;;;;14.50;4.45;;;10.50;99.90;;;;;;5038569;28;20041;-51
2023/12/25 03:07:48;;;;;;;14.50;4.00;;;10.50;99.90;;;;;;5019890;28;20104;-50
2023/12/25 03:10:13;;;;;;;21.90;4.47;;;10.50;99.90;;;;;;5038365;28;20052;-51
2023/12/25 03:12:39;;;;;;;14.50;3.72;;;10.50;99.90;;;;;;5040039;28;20029;-54
2023/12/25 03:15:05;;;;;;;13.25;3.72;;;10.50;99.90;;;;;;5041511;28;20024;-51
2023/12/25 03:17:30;;;;;;;10.10;3.33;;;10.50;99.90;;;;;;5038156;28;20034;-53
2023/12/25 03:19:56;;;;;;;7.72;2.85;;;10.50;99.90;;;;;;5042147;28;20021;-54
2023/12/25 03:22:22;;;;;;;8.57;2.85;;;10.50;99.90;;;;;;5039281;28;20581;-54
2023/12/25 03:24:47;;;;;;;14.18;3.35;;;10.50;99.90;;;;;;5040834;28;20026;-52
2023/12/25 03:27:13;;;;;;;15.05;3.38;;;10.50;99.90;;;;;;5040478;28;20462;-53
2023/12/25 03:29:38;;;;;;;13.52;3.28;;;10.50;99.90;;;;;;5037558;28;20053;-54
2023/12/25 03:32:04;;;;;;;7.00;3.30;;;10.60;99.90;;;;;;5038502;28;20445;-55
2023/12/25 03:34:30;;;;;;;6.72;2.83;;;10.50;99.90;;;;;;5035432;28;20018;-54
2023/12/25 03:36:56;;;;;;;7.30;2.92;;;10.60;99.90;;;;;;5041827;28;20096;-54
2023/12/25 03:39:21;;;;;;;9.95;2.63;;;10.60;99.90;;;;;;5039616;28;20025;-54
2023/12/25 03:41:47;;;;;;;6.32;2.45;;;10.60;99.90;;;;;;5036008;28;20024;-53
2023/12/25 03:44:13;;;;;;;10.43;2.70;;;10.60;99.90;;;;;;5040751;28;20025;-54
2023/12/25 03:46:38;;;;;;;8.30;2.92;;;10.60;99.90;;;;;;5039659;28;20025;-54
2023/12/25 03:49:04;;;;;;;8.38;3.17;;;10.70;99.90;;;;;;5024032;28;20047;-54
2023/12/25 03:51:34;;;;;;;7.43;2.45;;;10.70;99.90;;;;;;5038848;28;20156;-53
2023/12/25 03:54:00;;;;;;;11.63;2.50;;;10.80;99.90;;;;;;5042050;28;20018;-54
2023/12/25 03:56:25;;;;;;;9.23;2.25;;;10.90;99.90;;;;;;5039169;28;20036;-55
2023/12/25 03:58:51;;;;;;;6.68;2.03;;;11.00;99.90;;;;;;5041729;28;20526;-54
2023/12/25 04:01:17;;;;;;;7.85;1.80;;;11.00;99.90;;;;;;5040625;28;20025;-55
2023/12/25 04:03:42;;;;;;;6.05;1.77;;;11.10;99.90;;;;;;5040880;28;20021;-56
2023/12/25 04:06:08;;;;;;;4.45;1.85;;;11.20;99.90;;;;;;5042049;28;20501;-55
2023/12/25 04:08:33;;;;;;;8.23;2.10;;;11.20;99.90;;;;;;5039257;28;20089;-55
2023/12/25 04:10:59;;;;;;;9.85;2.45;;;11.20;99.90;;;;;;5042278;28;20080;-55
2023/12/25 04:13:24;;;;;;;12.65;2.05;;;11.20;99.90;;;;;;5021935;28;20033;-55
2023/12/25 04:15:50;;;;;;;7.53;1.85;;;11.20;99.90;;;;;;5041744;28;20067;-55
2023/12/25 04:18:16;;;;;;;4.47;1.75;;;11.30;99.90;;;;;;5040949;28;20366;-55
2023/12/25 04:20:41;;;;;;;7.85;1.88;;;11.30;99.90;;;;;;5040679;28;20475;-54
2023/12/25 04:23:07;;;;;;;6.32;1.92;;;11.20;99.90;;;;;;5042653;28;20029;-54
2023/12/25 04:25:32;;;;;;;6.40;1.70;;;11.30;99.90;;;;;;5039298;28;20445;-55
2023/12/25 04:27:58;;;;;;;6.32;1.50;;;11.30;99.90;;;;;;5042175;28;20048;-54
2023/12/25 04:30:24;;;;;;;9.38;2.40;;;11.30;99.90;;;;;;5022220;28;20035;-54
2023/12/25 04:32:49;;;;;;;8.70;1.90;;;11.30;99.90;;;;;;5042137;28;20144;-55
2023/12/25 04:35:15;;;;;;;6.00;1.98;;;11.30;99.90;;;;;;5041471;28;20040;-55
2023/12/25 04:37:41;;;;;;;6.63;1.70;;;11.30;99.90;;;;;;5040376;28;20060;-54
2023/12/25 04:40:07;;;;;;;4.55;1.33;;;11.40;99.90;;;;;;5043421;28;20382;-55
2023/12/25 04:42:32;;;;;;;8.32;1.70;;;11.40;99.90;;;;;;5043604;28;20014;-54
2023/12/25 04:44:58;;;;;;;5.07;1.52;;;11.50;99.90;;;;;;5042627;28;20472;-53
2023/12/25 04:47:24;;;;;;;6.32;1.98;;;11.40;99.90;;;;;;5040878;28;20032;-55
2023/12/25 04:49:49;;;;;;;6.63;1.75;;;11.40;99.90;;;;;;5045915;28;20466;-55
2023/12/25 04:52:15;;;;;;;8.82;1.52;;;11.40;99.90;;;;;;5045542;28;20108;-54
2023/12/25 04:54:40;;;;;;;5.53;1.45;;;11.40;99.90;;;;;;5044598;28;20451;-54
2023/12/25 04:57:06;;;;;;;10.68;3.47;;;11.30;99.90;;;;;;5046128;28;20021;-54
2023/12/25 04:59:31;;;;;;;6.15;1.52;;;11.30;99.90;;;;;;5043965;28;20037;-55
2023/12/25 05:02:00;;;;;;;6.85;1.65;;;11.30;99.90;;;;;;5046354;28;20103;-55
2023/12/25 05:04:25;;;;;;;5.47;1.23;;;11.20;99.90;;;;;;5026376;28;20463;-54
2023/12/25 05:06:51;;;;;;;6.63;1.40;;;11.30;99.90;;;;;;5045525;28;20104;-54
2023/12/25 05:09:17;;;;;;;7.40;1.73;;;11.30;99.90;;;;;;5044983;28;20429;-54
2023/12/25 05:11:42;;;;;;;5.95;1.73;;;11.30;99.90;;;;;;5043965;28;20116;-54
2023/12/25 05:14:08;;;;;;;5.47;1.27;;;11.30;99.90;;;;;;5045645;28;20329;-54
2023/12/25 05:16:33;;;;;;;4.32;1.23;;;11.30;99.90;;;;;;5042352;28;20021;-54
2023/12/25 05:18:59;;;;;;;5.50;1.60;;;11.40;99.90;;;;;;5045414;28;20025;-54
2023/12/25 05:21:25;;;;;;;5.38;1.85;;;11.30;99.90;;;;;;5043869;28;20036;-55
2023/12/25 05:23:50;;;;;;;4.88;1.35;;;11.30;99.90;;;;;;5045319;28;20029;-55
2023/12/25 05:26:16;;;;;;;4.35;1.20;;;11.30;99.90;;;;;;5045003;28;20120;-56
2023/12/25 05:28:41;;;;;;;5.30;1.50;;;11.30;99.90;;;;;;5044224;28;20032;-56
2023/12/25 05:31:07;;;;;;;6.80;1.92;;;11.30;99.90;;;;;;5027900;28;20017;-56
2023/12/25 05:33:33;;;;;;;5.00;1.33;;;11.30;99.90;;;;;;5025614;28;20397;-55
2023/12/25 05:35:58;;;;;;;7.38;1.52;;;11.30;99.90;;;;;;5045632;28;20016;-55
2023/12/25 05:38:24;;;;;;;4.72;1.27;;;11.30;99.90;;;;;;5025990;28;20117;-56
2023/12/25 05:40:49;;;;;;;6.78;1.95;;;11.30;99.90;;;;;;5045090;28;20017;-56
2023/12/25 05:43:15;;;;;;;4.65;1.85;;;11.20;99.90;;;;;;5045493;28;20518;-56
2023/12/25 05:45:41;;;;;;;5.38;1.85;;;11.20;99.90;;;;;;5043556;28;20136;-53
2023/12/25 05:48:06;;;;;;;11.90;2.10;;;11.20;99.90;;;;;;5043099;28;20104;-55
2023/12/25 05:50:32;;;;;;;7.50;1.85;;;11.20;99.90;;;;;;5032825;28;20065;-53
2023/12/25 05:52:58;;;;;;;6.18;1.85;;;11.20;99.90;;;;;;5014610;28;20052;-55
2023/12/25 05:55:25;;;;;;;3.70;1.20;;;11.20;99.90;;;;;;5028382;28;20543;-55
2023/12/25 05:57:51;;;;;;;5.10;1.80;;;11.20;99.90;;;;;;5028201;28;20018;-56
2023/12/25 06:00:17;;;;;;;2.80;1.27;;;11.20;99.90;;;;;;5028789;28;20096;-54
2023/12/25 06:02:43;;;;;;;11.57;1.92;;;11.20;99.90;;;;;;5031278;28;20125;-54
2023/12/25 06:05:08;;;;;;;7.50;2.05;;;11.10;99.90;;;;;;5046148;28;20013;-55
2023/12/25 06:07:34;;;;;;;10.50;2.08;;;11.10;99.90;;;;;;5043634;28;20056;-55
2023/12/25 06:10:00;;;;;;;8.88;1.10;;;11.10;99.90;;;;;;5045611;28;20020;-56
2023/12/25 06:12:25;;;;;;;6.88;1.95;;;11.10;99.90;;;;;;5026249;28;20035;-54
2023/12/25 06:14:51;;;;;;;5.82;1.42;;;11.10;99.90;;;;;;5045293;28;20086;-55
2023/12/25 06:17:16;;;;;;;8.07;2.47;;;11.10;99.90;;;;;;5027563;28;20040;-53
2023/12/25 06:19:42;;;;;;;5.85;1.20;;;11.00;99.90;;;;;;5044236;28;20056;-54
2023/12/25 06:22:08;;;;;;;3.42;1.80;;;11.00;99.90;;;;;;5046355;28;20021;-54
2023/12/25 06:24:33;;;;;;;4.03;1.50;;;11.00;99.90;;;;;;5043974;28;20108;-56
2023/12/25 06:26:59;;;;;;;3.50;1.30;;;10.90;99.90;;;;;;5027320;28;20028;-55
2023/12/25 06:29:25;;;;;;;8.50;1.60;;;10.90;99.90;;;;;;5044469;28;20612;-55
2023/12/25 06:31:50;;;;;;;7.40;2.25;;;10.90;99.90;;;;;;5044970;28;20082;-56
2023/12/25 06:34:16;;;;;;;7.82;1.98;;;10.90;99.90;;;;;;5045613;28;20270;-54
2023/12/25 06:36:42;;;;;;;6.95;2.20;;;10.90;99.90;;;;;;5042164;28;20485;-54
2023/12/25 06:39:07;;;;;;;6.88;1.85;;;10.90;99.90;;;;;;5027803;28;20478;-54
2023/12/25 06:41:33;;;;;;;6.00;1.70;;;10.80;99.90;;;;;;5044301;28;20401;-55
2023/12/25 06:43:58;;;;;;;9.15;1.77;;;10.80;99.90;;;;;;5045709;28;20482;-54
2023/12/25 06:46:24;;;;;;;6.93;1.70;;;10.70;99.90;;;;;;5044784;28;20029;-55
2023/12/25 06:48:50;;;;;;;9.30;1.67;;;10.70;99.90;;;;;;5031884;28;20064;-55
2023/12/25 06:51:15;;;;;;;8.30;1.60;;;10.70;99.90;;;;;;5028372;28;20026;-55
2023/12/25 06:53:41;;;;;;;7.88;2.50;;;10.70;99.90;;;;;;5028328;28;20162;-55
2023/12/25 06:56:07;;;;;;;2.20;1.50;;;10.70;99.90;;;;;;5027730;28;20026;-56
2023/12/25 06:58:33;;;;;;;10.77;2.58;;;10.70;99.90;;;;;;5027476;28;20021;-55
2023/12/25 07:01:00;;;;;;;4.32;1.80;;;10.70;99.90;;;;;;5027787;28;20028;-55
2023/12/25 07:03:26;;;;;;;4.60;1.73;;;10.70;99.90;;;;;;5027465;28;20501;-55
2023/12/25 07:05:52;;;;;;;7.70;1.63;;;10.70;99.90;;;;;;5038035;28;20025;-56
2023/12/25 07:08:17;;;;;;;5.25;2.00;;;10.70;99.90;;;;;;5045101;28;20482;-55
2023/12/25 07:10:46;;;;;;;3.72;1.85;;;10.70;99.90;;;;;;5043999;28;20104;-54
2023/12/25 07:13:12;;;;;;;10.20;2.25;;;10.70;99.90;;;;;;5045474;28;20078;-54
2023/12/25 07:15:38;;;;;;;7.07;1.75;;;10.70;99.90;;;;;;5043865;28;20524;-54
2023/12/25 07:18:05;;;;;;;7.30;2.38;;;10.70;99.90;;;;;;5045387;28;20070;-53
2023/12/25 07:20:31;;;;;;;7.70;2.28;;;10.60;99.90;;;;;;5044578;28;20116;-56
2023/12/25 07:22:57;;;;;;;6.55;2.47;;;10.60;99.90;;;;;;5045891;28;20103;-54
2023/12/25 07:25:22;;;;;;;7.05;2.00;;;10.60;99.90;;;;;;5041535;28;20029;-53
2023/12/25 07:27:48;;;;;;;7.03;2.15;;;10.60;99.90;;;;;;5044082;28;20035;-54
2023/12/25 07:30:13;;;;;;;5.68;1.98;;;10.60;99.90;;;;;;5046102;28;20045;-52
2023/12/25 07:32:40;;;;;;;7.70;2.50;;;10.60;99.90;;;;;;5044430;28;20215;-53
2023/12/25 07:35:06;;;;;;;6.97;2.35;;;10.50;99.90;;;;;;5045685;28;20028;-54
2023/12/25 07:37:32;;;;;;;6.60;2.30;;;10.50;99.90;;;;;;5010697;28;20113;-54
2023/12/25 07:39:58;;;;;;;6.57;2.10;;;10.40;99.90;;;;;;5027076;28;20092;-53
2023/12/25 07:42:23;;;;;;;5.95;1.50;;;10.40;99.90;;;;;;5042083;28;20029;-54
2023/12/25 07:44:49;;;;;;;5.97;2.10;;;10.30;99.90;;;;;;5044978;28;20090;-54
2023/12/25 07:47:15;;;;;;;5.78;2.17;;;10.20;99.90;;;;;;5027540;28;20250;-54
2023/12/25 07:49:40;;;;;;;2.85;1.48;;;10.20;99.90;;;;;;5022059;28;20033;-54
2023/12/25 07:52:06;;;;;;;5.95;1.50;;;10.00;99.90;;;;;;5032576;28;20021;-54
2023/12/25 07:54:31;;;;;;;4.35;1.77;;;9.90;99.90;;;;;;5045167;28;20491;-55
2023/12/25 07:56:57;;;;;;;4.03;1.42;;;9.80;99.90;;;;;;5045883;28;20492;-54
2023/12/25 07:59:23;;;;;;;3.72;1.42;;;9.80;99.90;;;;;;5046101;28;20204;-54
2023/12/25 08:01:48;;;;;;;4.35;1.00;;;9.70;99.90;;;;;;5045196;28;20594;-55
2023/12/25 08:04:14;;;;;;;3.22;0.90;;;9.60;99.90;;;;;;5038562;28;20359;-53
2023/12/25 08:06:40;;;;;;;4.68;1.27;;;9.60;99.90;;;;;;5034396;28;20021;-53
2023/12/25 08:09:05;;;;;;;2.33;1.10;;;9.60;99.90;;;;;;5028442;28;20109;-52
2023/12/25 08:11:31;;;;;;;4.53;1.00;;;9.60;99.90;;;;;;5028449;28;20112;-54
2023/12/25 08:13:56;;;;;;;5.63;1.45;;;9.60;99.90;;;;;;5028507;28;20018;-54
2023/12/25 08:16:22;;;;;;;3.05;1.60;;;9.50;99.90;;;;;;5012238;28;20047;-53
2023/12/25 08:18:48;;;;;;;4.72;1.42;;;9.50;99.90;;;;;;5031901;28;20056;-54
2023/12/25 08:21:13;;;;;;;2.22;1.00;;;9.50;99.90;;;;;;5032244;28;20042;-54
2023/12/25 08:23:41;;;;;;;2.88;0.90;;;9.50;99.90;;;;;;5034664;28;20052;-54
2023/12/25 08:26:07;;;;;;;5.22;1.42;;;9.50;99.90;;;;;;5017172;28;20475;-54
2023/12/25 08:28:33;;;;;;;4.03;1.08;;;9.50;99.90;;;;;;5038131;28;20104;-54
2023/12/25 08:30:59;;;;;;;4.55;1.48;;;9.60;99.90;;;;;;5034233;28;20021;-54
2023/12/25 08:33:25;;;;;;;3.65;1.13;;;9.60;99.90;;;;;;5033372;28;20061;-54
2023/12/25 08:35:52;;;;;;;6.20;1.15;;;9.60;99.90;;;;;;5016578;28;20483;-54
2023/12/25 08:38:18;;;;;;;5.32;1.30;;;9.60;99.90;;;;;;5045164;28;20025;-54
2023/12/25 08:40:43;;;;;;;5.45;1.60;;;9.70;99.90;;;;;;5049603;28;20025;-54
2023/12/25 08:43:09;;;;;;;7.57;1.70;;;9.70;99.90;;;;;;5049898;28;20036;-51
2023/12/25 08:45:34;;;;;;;3.53;1.40;;;9.80;99.90;;;;;;5049327;28;20037;-53
2023/12/25 08:48:01;;;;;;;5.20;1.50;;;9.80;99.90;;;;;;5049528;28;20643;-54
2023/12/25 08:50:26;;;;;;;9.50;1.75;;;9.90;99.90;;;;;;5049992;28;20529;-53
2023/12/25 08:52:52;;;;;;;4.97;1.83;;;9.90;99.90;;;;;;5049904;28;20017;-52
2023/12/25 08:55:18;;;;;;;3.65;1.33;;;10.00;99.90;;;;;;5050096;28;20083;-54
2023/12/25 08:57:43;;;;;;;6.05;1.55;;;10.00;99.90;;;;;;5049524;28;20025;-54
2023/12/25 09:00:10;;;;;;;9.32;2.00;;;10.10;99.90;;;;;;5050306;28;20109;-53
2023/12/25 09:02:36;;;;;;;5.53;1.80;;;10.20;99.90;;;;;;5044418;28;20033;-52
2023/12/25 09:05:02;;;;;;;10.00;2.08;;;10.20;99.90;;;;;;5038342;28;20018;-53
2023/12/25 09:07:27;;;;;;;5.50;1.30;;;10.20;99.90;;;;;;5037990;28;20021;-54
2023/12/25 09:09:53;;;;;;;6.07;1.67;;;10.30;99.90;;;;;;5028651;28;20103;-53
2023/12/25 09:12:19;;;;;;;20.85;3.47;;;10.40;99.90;;;;;;5030668;28;20033;-53
2023/12/25 09:14:46;;;;;;;11.20;1.80;;;10.40;99.90;;;;;;5029490;28;20384;-54
2023/12/25 09:17:12;;;;;;;4.65;1.60;;;10.50;99.90;;;;;;5029922;28;20348;-53
2023/12/25 09:19:37;;;;;;;5.97;1.25;;;10.40;99.90;;;;;;5030168;28;20112;-52
2023/12/25 09:22:03;;;;;;;5.70;2.08;;;10.50;99.90;;;;;;5029685;28;20030;-52
2023/12/25 09:24:29;;;;;;;5.55;1.67;;;10.50;99.90;;;;;;5033554;28;20060;-52
2023/12/25 09:26:55;;;;;;;7.03;1.35;;;10.50;99.90;;;;;;5033811;28;20094;-53
2023/12/25 09:29:21;;;;;;;4.65;1.52;;;10.50;99.90;;;;;;5029905;28;20306;-53
2023/12/25 09:31:46;;;;;;;5.40;1.63;;;10.60;99.90;;;;;;5038356;28;20328;-56
2023/12/25 09:34:12;;;;;;;2.15;1.17;;;10.60;99.90;;;;;;5029529;28;20095;-54
2023/12/25 09:36:38;;;;;;;6.22;1.52;;;10.70;99.90;;;;;;5033428;28;20029;-51
2023/12/25 09:39:03;;;;;;;5.35;1.92;;;10.70;99.90;;;;;;5035758;28;20064;-51
2023/12/25 09:41:32;;;;;;;7.03;2.13;;;10.80;99.90;;;;;;5035989;28;20613;-53
2023/12/25 09:44:00;;;;;;;6.38;1.50;;;10.80;99.90;;;;;;5035907;28;20022;-49
2023/12/25 09:46:25;;;;;;;7.90;1.95;;;10.90;99.90;;;;;;5035847;28;20116;-49
2023/12/25 09:48:52;;;;;;;6.00;1.98;;;10.90;99.90;;;;;;5034914;28;20643;-52
2023/12/25 09:51:18;;;;;;;6.38;1.80;;;10.90;99.90;;;;;;5032774;28;20079;-52
2023/12/25 09:53:45;;;;;;;5.78;1.60;;;11.00;99.90;;;;;;5032177;28;20021;-50
2023/12/25 09:56:14;;;;;;;4.65;1.65;;;10.90;99.90;;;;;;5028142;28;20033;-52
2023/12/25 09:58:41;;;;;;;3.95;1.70;;;11.00;99.90;;;;;;5030026;28;20021;-53
2023/12/25 10:01:07;;;;;;;9.68;2.10;;;11.00;99.90;;;;;;5029555;28;20033;-53
2023/12/25 10:03:37;;;;;;;8.40;1.77;;;11.00;99.90;;;;;;5037656;28;20040;-53
2023/12/25 10:06:02;;;;;;;8.50;2.75;;;11.10;99.90;;;;;;5030635;28;20025;-54
2023/12/25 10:08:29;;;;;;;4.72;1.70;;;11.20;99.90;;;;;;5031209;28;20048;-50
2023/12/25 10:10:55;;;;;;;7.68;2.85;;;11.30;99.90;;;;;;5028103;28;20150;-54
2023/12/25 10:13:24;;;;;;;5.80;1.65;;;11.50;99.90;;;;;;5028948;28;20575;-54
2023/12/25 10:15:50;;;;;;;6.60;1.73;;;11.60;99.90;;;;;;5028419;28;20033;-55
2023/12/25 10:18:16;;;;;;;6.90;1.48;;;11.60;99.90;;;;;;5025940;28;20021;-55
2023/12/25 10:20:57;;;;;;;2.85;1.50;;;11.60;99.90;;;;;;5028569;28;20064;-54
2023/12/25 10:23:30;;;;;;;10.82;2.45;;;11.60;99.90;;;;;;5030623;28;20048;-58
2023/12/25 10:25:57;;;;;;;4.05;1.67;;;11.60;99.90;;;;;;5028162;28;20394;-54
2023/12/25 10:28:28;;;;;;;9.98;1.75;;;11.60;99.90;;;;;;5025974;28;20018;-57
2023/12/25 10:31:07;;;;;;;8.48;2.00;;;11.50;99.90;;;;;;5028335;28;20017;-60
2023/12/25 10:33:35;;;;;;;11.35;2.58;;;11.50;99.90;;;;;;5027114;28;20025;-54
2023/12/25 10:36:09;;;;;;;8.10;2.22;;;11.40;99.90;;;;;;5023081;28;20091;-54
2023/12/25 10:38:42;;;;;;;9.85;2.17;;;11.20;99.90;;;;;;5028073;28;20025;-53
2023/12/25 10:41:19;;;;;;;9.05;1.85;;;11.20;99.90;;;;;;5028556;28;20021;-52
2023/12/25 10:43:56;;;;;;;9.15;2.38;;;11.20;99.90;;;;;;5022913;28;20044;-53
2023/12/25 10:46:30;;;;;;;13.55;2.85;;;11.30;99.90;;;;;;5030016;28;20027;-53
2023/12/25 10:48:56;;;;;;;9.18;2.33;;;11.20;99.90;;;;;;5011876;28;20036;-55
2023/12/25 10:51:40;;;;;;;15.38;2.03;;;11.20;99.90;;;;;;5029456;28;20048;-54
2023/12/25 10:54:08;;;;;;;9.75;2.45;;;11.20;99.90;;;;;;5023977;28;20351;-54
2023/12/25 10:56:35;;;;;;;10.00;2.10;;;11.20;99.90;;;;;;5030347;28;20029;-54
2023/12/25 10:59:11;;;;;;;8.88;2.67;;;11.20;99.90;;;;;;5030485;28;20018;-54
2023/12/25 11:01:39;;;;;;;11.75;2.75;;;11.10;99.90;;;;;;5028641;28;20080;-54
2023/12/25 11:04:05;;;;;;;11.35;2.25;;;11.10;99.90;;;;;;5027841;28;20470;-54
2023/12/25 11:06:32;;;;;;;6.57;1.88;;;11.20;99.90;;;;;;5025977;28;20097;-54
2023/12/25 11:08:58;;;;;;;6.18;2.13;;;11.50;99.90;;;;;;5028023;28;20484;-54
2023/12/25 11:11:24;;;;;;;12.35;3.00;;;11.80;99.90;;;;;;5028217;28;20151;-54
2023/12/25 11:13:49;;;;;;;12.68;2.25;;;12.10;99.90;;;;;;5029911;28;20029;-52
2023/12/25 11:16:16;;;;;;;5.60;2.00;;;12.50;99.90;;;;;;5029980;28;20029;-54
2023/12/25 11:18:42;;;;;;;6.15;2.28;;;12.60;99.90;;;;;;5023912;28;20021;-52
2023/12/25 11:21:09;;;;;;;7.15;2.35;;;12.60;99.90;;;;;;5027126;28;20540;-55
2023/12/25 11:23:37;;;;;;;6.88;1.77;;;12.50;99.90;;;;;;5029705;28;20447;-54
2023/12/25 11:26:07;;;;;;;10.90;2.13;;;12.40;99.90;;;;;;5030364;28;20113;-53
2023/12/25 11:28:38;;;;;;;8.63;1.70;;;12.20;99.90;;;;;;5030950;28;20418;-51
2023/12/25 11:31:05;;;;;;;9.82;1.60;;;12.10;99.90;;;;;;5011245;28;20770;-53
2023/12/25 11:33:47;;;;;;;9.80;2.08;;;12.00;99.90;;;;;;5026019;28;20034;-53
2023/12/25 11:36:17;;;;;;;8.80;2.00;;;11.90;99.90;;;;;;5027224;28;20018;-53
2023/12/25 11:38:47;;;;;;;8.45;2.20;;;11.90;99.90;;;;;;5012192;28;20033;-50
2023/12/25 11:41:17;;;;;;;8.80;2.40;;;11.80;99.90;;;;;;5024490;28;20061;-54
2023/12/25 11:43:46;;;;;;;6.05;2.00;;;11.70;99.90;;;;;;5027142;28;20506;-51
2023/12/25 11:46:19;;;;;;;12.05;2.20;;;11.70;99.90;;;;;;5024494;28;20438;-53
2023/12/25 11:48:47;;;;;;;4.60;1.77;;;11.60;99.90;;;;;;5027501;28;20181;-52
2023/12/25 11:51:29;;;;;;;7.70;2.10;;;11.60;99.90;;;;;;5023958;28;20021;-51
2023/12/25 11:53:59;;;;;;;8.63;2.05;;;11.60;99.90;;;;;;5029159;28;20413;-53
2023/12/25 11:56:27;;;;;;;4.07;1.85;;;11.60;99.90;;;;;;5030393;28;20391;-55
2023/12/25 11:58:53;;;;;;;14.75;2.40;;;11.60;99.90;;;;;;5032254;28;20075;-53
2023/12/25 12:01:19;;;;;;;6.40;1.98;;;11.60;99.90;;;;;;5030982;28;20081;-51
2023/12/25 12:03:46;;;;;;;7.63;1.88;;;11.60;99.90;;;;;;5028417;28;20021;-53
2023/12/25 12:06:14;;;;;;;12.23;2.22;;;11.60;99.90;;;;;;5030616;28;20025;-51
2023/12/25 12:08:40;;;;;;;7.93;1.88;;;11.50;99.90;;;;;;5028406;28;20211;-52
2023/12/25 12:11:06;;;;;;;6.63;1.65;;;11.50;99.90;;;;;;5028800;28;20044;-53
2023/12/25 12:13:33;;;;;;;15.45;2.50;;;11.40;99.90;;;;;;5026720;28;20398;-54
2023/12/25 12:15:58;;;;;;;5.78;1.55;;;11.50;99.90;;;;;;5026783;28;20076;-54
2023/12/25 12:18:26;;;;;;;12.32;1.65;;;11.40;99.90;;;;;;5027148;28;20450;-53
2023/12/25 12:20:53;;;;;;;8.05;2.20;;;11.40;99.90;;;;;;5026804;28;20439;-53
2023/12/25 12:23:19;;;;;;;6.85;1.85;;;11.40;99.90;;;;;;5009661;28;20037;-55
2023/12/25 12:25:46;;;;;;;5.30;1.60;;;11.40;99.90;;;;;;5031811;28;20163;-52
2023/12/25 12:28:17;;;;;;;8.00;2.15;;;11.40;99.90;;;;;;5028608;28;20114;-52
2023/12/25 12:30:42;;;;;;;14.98;2.92;;;11.40;99.90;;;;;;5030993;28;20036;-52
2023/12/25 12:33:10;;;;;;;6.93;2.33;;;11.50;99.90;;;;;;5031106;28;20025;-51
2023/12/25 12:35:35;;;;;;;7.78;1.92;;;11.40;99.90;;;;;;5033662;28;20029;-52
2023/12/25 12:38:03;;;;;;;5.68;2.30;;;11.50;99.90;;;;;;5033662;28;20430;-50